Time;durP1;ratioP1;P1;durP2;ratioP2;P2;SDS_P1;SDS_P2;PMS_P1;PMS_P2;Temp;Humidity;BMP_temperature;BMP_pressure;BME280_temperature;BME280_humidity;BME280_pressure;Samples;Min_cycle;Max_cycle;Signal;HPM_P1;HPM_P2
2023/08/23 00:01:43;;;;;;;3.17;2.50;;;16.40;99.90;;;;;;5033324;28;20610;-53
2023/08/23 00:04:10;;;;;;;5.87;2.83;;;16.30;99.90;;;;;;5031431;28;20264;-48
2023/08/23 00:06:37;;;;;;;3.67;2.57;;;16.30;99.90;;;;;;5021169;28;20254;-52
2023/08/23 00:09:05;;;;;;;2.67;2.40;;;16.30;99.90;;;;;;5029292;28;20965;-49
2023/08/23 00:11:32;;;;;;;2.87;2.57;;;16.20;99.90;;;;;;5012762;28;20258;-48
2023/08/23 00:13:59;;;;;;;3.60;3.27;;;16.20;99.90;;;;;;5024275;28;20261;-44
2023/08/23 00:16:27;;;;;;;4.17;3.03;;;16.10;99.90;;;;;;5033617;28;20283;-46
2023/08/23 00:18:54;;;;;;;2.70;2.50;;;16.10;99.90;;;;;;5027937;28;20579;-54
2023/08/23 00:21:21;;;;;;;4.73;2.60;;;16.10;99.90;;;;;;5029632;28;20227;-46
2023/08/23 00:23:48;;;;;;;3.70;2.53;;;16.10;99.90;;;;;;5016406;28;20243;-54
2023/08/23 00:26:15;;;;;;;5.37;3.10;;;16.20;99.90;;;;;;5031489;28;20199;-51
2023/08/23 00:28:43;;;;;;;4.53;2.83;;;16.30;99.90;;;;;;5006223;28;20207;-53
2023/08/23 00:31:10;;;;;;;5.37;2.40;;;16.20;99.90;;;;;;5049517;28;20233;-51
2023/08/23 00:33:38;;;;;;;3.03;2.73;;;16.10;99.90;;;;;;5027427;28;20243;-50
2023/08/23 00:36:05;;;;;;;3.43;3.13;;;16.00;99.90;;;;;;5030667;28;20192;-45
2023/08/23 00:38:32;;;;;;;3.53;2.87;;;16.00;99.90;;;;;;5027485;28;20204;-49
2023/08/23 00:40:59;;;;;;;4.27;2.87;;;16.00;99.90;;;;;;5028386;28;20217;-48
2023/08/23 00:43:26;;;;;;;3.10;2.80;;;15.90;99.90;;;;;;5006116;28;20220;-52
2023/08/23 00:45:53;;;;;;;6.50;2.80;;;15.90;99.90;;;;;;5027918;28;20184;-55
2023/08/23 00:48:20;;;;;;;3.93;2.80;;;15.90;99.90;;;;;;5041712;28;20196;-49
2023/08/23 00:50:48;;;;;;;3.63;3.30;;;15.80;99.90;;;;;;5036664;28;20241;-53
2023/08/23 00:53:15;;;;;;;3.30;3.00;;;15.80;99.90;;;;;;5027984;28;20238;-47
2023/08/23 00:55:42;;;;;;;6.53;3.17;;;15.80;99.90;;;;;;5024400;28;20241;-55
2023/08/23 00:58:10;;;;;;;5.00;3.27;;;15.80;99.90;;;;;;5028376;28;20195;-51
2023/08/23 01:00:36;;;;;;;4.57;3.40;;;15.90;99.90;;;;;;5007372;28;20223;-54
2023/08/23 01:03:03;;;;;;;5.03;3.90;;;15.90;99.90;;;;;;5012615;28;21031;-49
2023/08/23 01:05:43;;;;;;;3.97;3.40;;;15.80;99.90;;;;;;5031247;28;20200;-51
2023/08/23 01:08:19;;;;;;;4.23;3.80;;;15.70;99.90;;;;;;5023423;28;20196;-50
2023/08/23 01:10:52;;;;;;;4.67;3.43;;;15.70;99.90;;;;;;5019781;28;20203;-54
2023/08/23 01:13:28;;;;;;;3.63;3.33;;;15.60;99.90;;;;;;5030130;28;20265;-50
2023/08/23 01:15:57;;;;;;;3.77;3.47;;;15.60;99.90;;;;;;5003865;28;20192;-49
2023/08/23 01:18:25;;;;;;;5.50;3.33;;;15.60;99.90;;;;;;5026069;28;20192;-47
2023/08/23 01:20:54;;;;;;;4.77;4.00;;;15.60;99.90;;;;;;5022466;28;20712;-55
2023/08/23 01:23:23;;;;;;;4.87;3.90;;;15.50;99.90;;;;;;5018803;28;20269;-52
2023/08/23 01:25:51;;;;;;;5.00;3.93;;;15.50;99.90;;;;;;5014412;28;20547;-53
2023/08/23 01:28:20;;;;;;;8.17;3.80;;;15.50;99.90;;;;;;5027862;28;20230;-51
2023/08/23 01:30:47;;;;;;;5.83;3.90;;;15.60;99.90;;;;;;5010733;28;20235;-54
2023/08/23 01:33:20;;;;;;;5.17;3.93;;;15.60;99.90;;;;;;5024454;28;20273;-49
2023/08/23 01:35:53;;;;;;;3.60;3.30;;;15.60;99.90;;;;;;5029312;28;20187;-54
2023/08/23 01:38:23;;;;;;;4.73;3.93;;;15.60;99.90;;;;;;5022851;28;20282;-49
2023/08/23 01:40:50;;;;;;;5.43;3.60;;;15.60;99.90;;;;;;5012654;28;20298;-55
2023/08/23 01:43:17;;;;;;;6.90;3.70;;;15.70;99.90;;;;;;5035188;28;20274;-45
2023/08/23 01:45:43;;;;;;;3.60;3.30;;;15.70;99.90;;;;;;5023965;28;20200;-56
2023/08/23 01:48:11;;;;;;;4.07;3.67;;;15.60;99.90;;;;;;5018601;28;20215;-48
2023/08/23 01:50:37;;;;;;;4.87;4.40;;;15.60;99.90;;;;;;5036601;28;20588;-56
2023/08/23 01:53:05;;;;;;;4.43;4.03;;;15.50;99.90;;;;;;5031187;28;20219;-51
2023/08/23 01:55:33;;;;;;;5.40;4.23;;;15.40;99.90;;;;;;5037470;28;20234;-47
2023/08/23 01:57:59;;;;;;;4.97;4.03;;;15.40;99.90;;;;;;5016826;28;20898;-51
2023/08/23 02:00:26;;;;;;;5.00;4.60;;;15.40;99.90;;;;;;5027785;28;20215;-50
2023/08/23 02:02:53;;;;;;;4.40;3.90;;;15.40;99.90;;;;;;5008498;28;20223;-47
2023/08/23 02:05:20;;;;;;;6.03;3.90;;;15.30;99.90;;;;;;5026515;28;20211;-50
2023/08/23 02:07:47;;;;;;;4.27;3.80;;;15.30;99.90;;;;;;5019629;28;20200;-54
2023/08/23 02:10:14;;;;;;;7.27;4.90;;;15.30;99.90;;;;;;5023590;28;20199;-49
2023/08/23 02:12:42;;;;;;;5.87;4.60;;;15.30;99.90;;;;;;5012243;28;20216;-53
2023/08/23 02:15:09;;;;;;;8.63;5.20;;;15.30;99.90;;;;;;5022116;28;20192;-44
2023/08/23 02:17:36;;;;;;;6.67;4.20;;;15.30;99.90;;;;;;5007442;28;20199;-56
2023/08/23 02:20:03;;;;;;;10.47;4.77;;;15.40;99.90;;;;;;5023647;28;20223;-47
2023/08/23 02:22:30;;;;;;;6.20;5.27;;;15.40;99.90;;;;;;5027778;28;20250;-49
2023/08/23 02:24:57;;;;;;;8.37;5.50;;;15.40;99.90;;;;;;5025316;28;20194;-45
2023/08/23 02:27:24;;;;;;;6.03;5.43;;;15.30;99.90;;;;;;5017462;28;20834;-46
2023/08/23 02:29:53;;;;;;;7.63;6.10;;;15.30;99.90;;;;;;5022346;28;20689;-56
2023/08/23 02:32:20;;;;;;;6.43;4.93;;;15.30;99.90;;;;;;5006444;28;20219;-50
2023/08/23 02:34:48;;;;;;;6.50;5.30;;;15.30;99.90;;;;;;5022862;28;20253;-55
2023/08/23 02:37:15;;;;;;;9.23;5.93;;;15.30;99.90;;;;;;5026920;28;20634;-49
2023/08/23 02:39:42;;;;;;;6.83;5.60;;;15.30;99.90;;;;;;5020748;28;20191;-55
2023/08/23 02:42:08;;;;;;;6.40;5.30;;;15.30;99.90;;;;;;5025847;28;20492;-51
2023/08/23 02:44:36;;;;;;;8.87;6.33;;;15.40;99.90;;;;;;5015061;28;20203;-54
2023/08/23 02:47:04;;;;;;;12.80;8.43;;;15.30;99.90;;;;;;5027781;28;20869;-49
2023/08/23 02:49:31;;;;;;;11.10;6.97;;;15.30;99.90;;;;;;5004411;28;20282;-55
2023/08/23 02:51:58;;;;;;;8.87;6.07;;;15.30;99.90;;;;;;5026452;28;20184;-46
2023/08/23 02:54:25;;;;;;;6.70;5.17;;;15.30;99.90;;;;;;5029094;28;20216;-52
2023/08/23 02:56:51;;;;;;;6.57;5.60;;;15.30;99.90;;;;;;5016830;28;20199;-46
2023/08/23 02:59:18;;;;;;;6.13;4.93;;;15.40;99.90;;;;;;5019757;28;20289;-51
2023/08/23 03:01:45;;;;;;;7.07;6.37;;;15.40;99.90;;;;;;5026772;28;20211;-54
2023/08/23 03:04:13;;;;;;;9.23;5.10;;;15.40;99.90;;;;;;5007911;28;20254;-46
2023/08/23 03:06:40;;;;;;;6.07;5.43;;;15.40;99.90;;;;;;5021227;28;20302;-53
2023/08/23 03:09:07;;;;;;;8.27;6.00;;;15.50;99.90;;;;;;5023649;28;20192;-46
2023/08/23 03:11:34;;;;;;;7.80;6.03;;;15.50;99.90;;;;;;5015342;28;20551;-55
2023/08/23 03:14:01;;;;;;;7.60;6.53;;;15.40;99.90;;;;;;5021824;28;20224;-48
2023/08/23 03:16:28;;;;;;;13.10;7.43;;;15.40;99.90;;;;;;5013165;28;20658;-55
2023/08/23 03:18:55;;;;;;;8.53;6.80;;;15.50;99.90;;;;;;5020221;28;20340;-49
2023/08/23 03:21:23;;;;;;;8.10;6.13;;;15.50;99.90;;;;;;5001506;28;20219;-55
2023/08/23 03:23:50;;;;;;;13.23;8.20;;;15.50;99.90;;;;;;5020789;28;20211;-51
2023/08/23 03:26:17;;;;;;;12.20;8.40;;;15.40;99.90;;;;;;5019404;28;20206;-50
2023/08/23 03:28:43;;;;;;;13.27;8.07;;;15.40;99.90;;;;;;5023504;28;20297;-49
2023/08/23 03:31:11;;;;;;;14.93;10.00;;;15.40;99.90;;;;;;5014979;28;20657;-55
2023/08/23 03:33:38;;;;;;;16.10;11.53;;;15.50;99.90;;;;;;5026997;28;20264;-48
2023/08/23 03:36:05;;;;;;;17.23;11.97;;;15.50;99.90;;;;;;5007309;28;20298;-47
2023/08/23 03:38:34;;;;;;;18.70;12.40;;;15.60;99.90;;;;;;5022787;28;20283;-49
2023/08/23 03:41:01;;;;;;;18.20;11.80;;;15.60;99.90;;;;;;5028550;28;20211;-51
2023/08/23 03:43:29;;;;;;;18.67;12.57;;;15.60;99.90;;;;;;5025976;28;20454;-51
2023/08/23 03:45:56;;;;;;;21.20;13.00;;;15.60;99.90;;;;;;5032759;28;20223;-47
2023/08/23 03:48:24;;;;;;;22.57;13.37;;;15.60;99.90;;;;;;5015247;28;20212;-53
2023/08/23 03:50:50;;;;;;;20.23;14.13;;;15.70;99.90;;;;;;5018550;28;20745;-46
2023/08/23 03:53:17;;;;;;;21.00;12.47;;;15.70;99.90;;;;;;5027211;28;20569;-55
2023/08/23 03:55:52;;;;;;;17.70;13.97;;;15.70;99.90;;;;;;5034557;28;20192;-47
2023/08/23 03:58:19;;;;;;;22.73;13.33;;;15.80;99.90;;;;;;5033348;28;20195;-55
2023/08/23 04:00:50;;;;;;;23.20;14.40;;;15.80;99.90;;;;;;5020216;28;22743;-45
2023/08/23 04:03:16;;;;;;;22.97;14.27;;;15.80;99.90;;;;;;5009465;28;20227;-54
2023/08/23 04:05:43;;;;;;;23.50;14.77;;;15.90;99.90;;;;;;5030410;28;20196;-52
2023/08/23 04:08:10;;;;;;;24.93;15.63;;;15.80;99.90;;;;;;5004553;28;20208;-53
2023/08/23 04:10:37;;;;;;;23.07;14.20;;;15.90;99.90;;;;;;5027174;28;21256;-49
2023/08/23 04:13:05;;;;;;;25.13;15.10;;;15.90;99.90;;;;;;5029245;28;20326;-44
2023/08/23 04:15:32;;;;;;;23.10;13.93;;;15.90;99.90;;;;;;5018522;28;20208;-54
2023/08/23 04:17:59;;;;;;;24.37;16.37;;;15.90;99.90;;;;;;5027372;28;20241;-46
2023/08/23 04:20:26;;;;;;;24.77;15.87;;;16.00;99.90;;;;;;5018453;28;20854;-46
2023/08/23 04:22:53;;;;;;;24.03;14.73;;;15.90;99.90;;;;;;5007432;28;20226;-48
2023/08/23 04:25:20;;;;;;;16.37;14.10;;;15.90;99.90;;;;;;5025567;28;20196;-49
2023/08/23 04:27:47;;;;;;;21.30;14.43;;;15.90;99.90;;;;;;5027512;28;20262;-53
2023/08/23 04:30:15;;;;;;;23.17;14.90;;;15.90;99.90;;;;;;5024058;28;20208;-46
2023/08/23 04:32:42;;;;;;;26.77;13.97;;;15.90;99.90;;;;;;5024270;28;20208;-51
2023/08/23 04:35:09;;;;;;;24.67;15.23;;;15.90;99.90;;;;;;5017720;28;20192;-46
2023/08/23 04:37:36;;;;;;;23.53;15.37;;;15.90;99.90;;;;;;4994716;28;20212;-50
2023/08/23 04:40:07;;;;;;;26.67;16.33;;;15.80;99.90;;;;;;5011911;28;20207;-55
2023/08/23 04:42:34;;;;;;;20.87;14.13;;;15.90;99.90;;;;;;5017379;28;20249;-51
2023/08/23 04:45:01;;;;;;;20.57;13.37;;;15.80;99.90;;;;;;5023954;28;20214;-50
2023/08/23 04:47:31;;;;;;;20.20;14.47;;;15.80;99.90;;;;;;5016150;28;20720;-50
2023/08/23 04:49:59;;;;;;;17.07;13.20;;;15.80;99.90;;;;;;5015925;28;20196;-50
2023/08/23 04:52:25;;;;;;;19.03;13.67;;;15.90;99.90;;;;;;5027389;28;20222;-52
2023/08/23 04:54:52;;;;;;;20.33;14.30;;;15.90;99.90;;;;;;5003000;28;20200;-51
2023/08/23 04:57:19;;;;;;;20.77;14.93;;;15.90;99.90;;;;;;5012236;28;20299;-48
2023/08/23 04:59:46;;;;;;;20.03;14.03;;;15.90;99.90;;;;;;5021721;28;20899;-54
2023/08/23 05:02:13;;;;;;;16.83;12.77;;;15.90;99.90;;;;;;5021614;28;20293;-53
2023/08/23 05:04:43;;;;;;;16.23;12.53;;;15.90;99.90;;;;;;5032480;28;21032;-58
2023/08/23 05:07:10;;;;;;;17.37;12.43;;;15.90;99.90;;;;;;5016802;28;20670;-59
2023/08/23 05:09:37;;;;;;;16.63;12.10;;;15.90;99.90;;;;;;5012475;28;20199;-59
2023/08/23 05:12:05;;;;;;;26.87;13.03;;;15.90;99.90;;;;;;5036010;28;20194;-57
2023/08/23 05:14:32;;;;;;;22.47;12.83;;;16.00;99.90;;;;;;5019475;28;20246;-58
2023/08/23 05:16:59;;;;;;;20.77;13.07;;;16.00;99.90;;;;;;5014220;28;20230;-58
2023/08/23 05:19:26;;;;;;;15.40;10.90;;;16.00;99.90;;;;;;5025914;28;20192;-59
2023/08/23 05:21:54;;;;;;;16.37;11.33;;;16.10;99.90;;;;;;5019653;28;20238;-54
2023/08/23 05:24:22;;;;;;;16.00;11.37;;;16.10;99.90;;;;;;5009337;28;20216;-54
2023/08/23 05:26:48;;;;;;;15.87;11.63;;;16.10;99.90;;;;;;5016654;28;20242;-52
2023/08/23 05:29:15;;;;;;;18.40;11.80;;;16.20;99.90;;;;;;5017433;28;20208;-46
2023/08/23 05:31:42;;;;;;;16.20;11.43;;;16.20;99.90;;;;;;5013816;28;20196;-53
2023/08/23 05:34:10;;;;;;;17.73;12.10;;;16.20;99.90;;;;;;5017457;28;20215;-48
2023/08/23 05:36:36;;;;;;;16.27;11.07;;;16.30;99.90;;;;;;5019619;28;20291;-54
2023/08/23 05:39:06;;;;;;;12.77;10.53;;;16.30;99.90;;;;;;5020128;28;20294;-45
2023/08/23 05:41:33;;;;;;;15.87;10.67;;;16.40;99.90;;;;;;5004100;28;20244;-56
2023/08/23 05:43:59;;;;;;;17.17;10.60;;;16.40;99.90;;;;;;5017129;28;21738;-49
2023/08/23 05:46:26;;;;;;;16.37;10.23;;;16.40;99.90;;;;;;5018645;28;20207;-52
2023/08/23 05:48:53;;;;;;;13.23;9.23;;;16.50;99.90;;;;;;5011967;28;20247;-45
2023/08/23 05:51:21;;;;;;;11.67;9.93;;;16.60;99.90;;;;;;5027177;28;20187;-50
2023/08/23 05:53:48;;;;;;;12.40;9.57;;;16.60;99.90;;;;;;5013672;28;20228;-43
2023/08/23 05:56:16;;;;;;;14.87;8.83;;;16.60;99.90;;;;;;5004874;28;20215;-47
2023/08/23 05:58:43;;;;;;;12.43;8.77;;;16.70;99.90;;;;;;5017207;28;20655;-54
2023/08/23 06:01:09;;;;;;;11.50;7.30;;;16.70;99.90;;;;;;5010530;28;20211;-48
2023/08/23 06:03:36;;;;;;;10.57;8.20;;;16.80;99.90;;;;;;5021799;28;20220;-60
2023/08/23 06:06:03;;;;;;;11.90;8.27;;;16.90;99.90;;;;;;5017294;28;20904;-47
2023/08/23 06:08:30;;;;;;;11.30;8.17;;;16.90;99.90;;;;;;5023754;28;20200;-57
2023/08/23 06:10:57;;;;;;;11.53;7.80;;;16.90;99.90;;;;;;4997703;28;20394;-55
2023/08/23 06:13:25;;;;;;;9.83;7.37;;;17.00;99.90;;;;;;5024634;28;20258;-49
2023/08/23 06:15:52;;;;;;;7.93;6.53;;;17.10;99.90;;;;;;5012170;28;20229;-49
2023/08/23 06:18:19;;;;;;;7.63;5.70;;;17.10;99.90;;;;;;5028292;28;20205;-48
2023/08/23 06:20:49;;;;;;;7.83;6.03;;;17.20;99.90;;;;;;5006372;28;20212;-57
2023/08/23 06:23:15;;;;;;;9.17;5.80;;;17.20;99.90;;;;;;5022995;28;20228;-46
2023/08/23 06:25:42;;;;;;;6.93;5.90;;;17.30;99.90;;;;;;4994396;28;20681;-59
2023/08/23 06:28:09;;;;;;;10.83;6.70;;;17.30;99.90;;;;;;5025011;28;20204;-63
2023/08/23 06:30:38;;;;;;;7.77;6.20;;;17.40;99.90;;;;;;5008298;28;20204;-63
2023/08/23 06:33:07;;;;;;;6.07;5.33;;;17.50;99.90;;;;;;5017706;28;20212;-67
2023/08/23 06:35:35;;;;;;;6.77;5.10;;;17.50;99.90;;;;;;5023713;28;20262;-67
2023/08/23 06:38:01;;;;;;;5.80;4.50;;;17.50;99.90;;;;;;5026558;28;20562;-62
2023/08/23 06:40:28;;;;;;;5.47;4.17;;;17.60;99.90;;;;;;4994541;28;20210;-65
2023/08/23 06:42:55;;;;;;;6.67;4.50;;;17.60;99.90;;;;;;5021791;28;20712;-62
2023/08/23 06:45:22;;;;;;;6.53;5.30;;;17.70;99.90;;;;;;5024753;28;20301;-63
2023/08/23 06:47:50;;;;;;;5.00;4.50;;;17.70;99.90;;;;;;5016133;28;20211;-66
2023/08/23 06:50:17;;;;;;;6.50;4.20;;;17.80;99.90;;;;;;5033695;28;20188;-65
2023/08/23 06:52:44;;;;;;;12.07;4.57;;;17.80;99.90;;;;;;5018962;28;20243;-65
2023/08/23 06:55:11;;;;;;;6.80;4.80;;;17.90;99.90;;;;;;5017439;28;20203;-66
2023/08/23 06:57:39;;;;;;;6.00;4.57;;;17.90;99.90;;;;;;5001757;28;20242;-66
2023/08/23 07:00:07;;;;;;;5.90;3.90;;;18.00;99.90;;;;;;5024022;28;20930;-63
2023/08/23 07:02:34;;;;;;;7.63;4.43;;;18.00;99.90;;;;;;5022614;28;20215;-65
2023/08/23 07:05:03;;;;;;;7.30;4.27;;;18.10;99.90;;;;;;5020887;28;20780;-61
2023/08/23 07:07:30;;;;;;;5.27;3.87;;;18.20;99.90;;;;;;5017283;28;20284;-64
2023/08/23 07:09:56;;;;;;;6.03;3.73;;;18.20;99.90;;;;;;5011892;28;20203;-61
2023/08/23 07:12:23;;;;;;;4.33;3.47;;;18.30;99.90;;;;;;5004173;28;20236;-64
2023/08/23 07:14:50;;;;;;;5.30;3.40;;;18.40;99.90;;;;;;5023498;28;20196;-63
2023/08/23 07:17:17;;;;;;;6.53;3.50;;;18.40;99.90;;;;;;5009128;28;20208;-65
2023/08/23 07:19:44;;;;;;;5.57;2.80;;;18.50;99.90;;;;;;5027162;28;20724;-63
2023/08/23 07:22:13;;;;;;;3.77;2.77;;;18.60;99.90;;;;;;5016140;28;20342;-62
2023/08/23 07:24:40;;;;;;;3.90;2.37;;;18.60;99.90;;;;;;5016891;28;20204;-49
2023/08/23 07:27:07;;;;;;;6.03;3.20;;;18.60;99.90;;;;;;5000948;28;20334;-52
2023/08/23 07:29:36;;;;;;;8.17;3.23;;;18.70;99.90;;;;;;5008927;28;20799;-52
2023/08/23 07:32:03;;;;;;;4.10;2.83;;;18.70;99.90;;;;;;5013650;28;20285;-55
2023/08/23 07:34:30;;;;;;;3.00;2.40;;;18.70;99.90;;;;;;5009591;28;20228;-58
2023/08/23 07:36:57;;;;;;;5.37;2.90;;;18.80;99.90;;;;;;5029602;28;20199;-57
2023/08/23 07:39:27;;;;;;;4.27;2.13;;;18.90;99.90;;;;;;5016030;28;20271;-54
2023/08/23 07:41:55;;;;;;;2.90;2.13;;;19.00;99.90;;;;;;5022070;28;20220;-52
2023/08/23 07:44:22;;;;;;;4.53;2.33;;;19.10;99.90;;;;;;5002652;28;20220;-53
2023/08/23 07:46:48;;;;;;;4.23;2.17;;;19.20;99.90;;;;;;5023681;28;20254;-53
2023/08/23 07:49:16;;;;;;;4.30;2.40;;;19.30;99.90;;;;;;5011410;28;20200;-53
2023/08/23 07:51:42;;;;;;;2.80;2.00;;;19.30;99.90;;;;;;5018445;28;20202;-53
2023/08/23 07:54:10;;;;;;;3.47;2.07;;;19.30;99.90;;;;;;5021133;28;20211;-56
2023/08/23 07:56:39;;;;;;;6.80;2.93;;;19.20;99.90;;;;;;5018067;28;20212;-53
2023/08/23 07:59:05;;;;;;;3.87;2.30;;;19.20;99.90;;;;;;5004147;28;20270;-53
2023/08/23 08:01:32;;;;;;;2.60;2.10;;;19.20;99.90;;;;;;5018362;28;20203;-54
2023/08/23 08:03:59;;;;;;;4.77;2.10;;;19.20;99.90;;;;;;5022051;28;20258;-50
2023/08/23 08:06:26;;;;;;;3.10;1.70;;;19.30;99.90;;;;;;5013215;28;21122;-54
2023/08/23 08:08:53;;;;;;;4.30;2.10;;;19.30;99.90;;;;;;5019019;28;20833;-53
2023/08/23 08:11:20;;;;;;;4.40;2.30;;;19.30;99.90;;;;;;5020625;28;20573;-55
2023/08/23 08:13:48;;;;;;;3.03;1.87;;;19.40;99.90;;;;;;5005839;28;20306;-57
2023/08/23 08:16:17;;;;;;;2.57;1.60;;;19.50;99.90;;;;;;5021014;28;20473;-53
2023/08/23 08:18:45;;;;;;;2.97;1.40;;;19.40;99.90;;;;;;5015913;28;20315;-55
2023/08/23 08:21:14;;;;;;;3.83;1.83;;;19.30;99.90;;;;;;5019413;28;20630;-51
2023/08/23 08:23:48;;;;;;;2.87;2.50;;;19.40;99.90;;;;;;5030209;28;20299;-56
2023/08/23 08:26:16;;;;;;;2.80;2.47;;;19.40;99.90;;;;;;5012767;28;20203;-60
2023/08/23 08:28:49;;;;;;;3.53;2.17;;;19.50;99.90;;;;;;5021147;28;20192;-55
2023/08/23 08:31:17;;;;;;;4.30;2.23;;;19.60;99.90;;;;;;5000215;28;20824;-60
2023/08/23 08:33:45;;;;;;;3.90;2.03;;;19.70;99.90;;;;;;5012000;28;20354;-53
2023/08/23 08:36:21;;;;;;;3.77;2.03;;;19.90;99.90;;;;;;5022025;28;20563;-60
2023/08/23 08:38:51;;;;;;;4.90;2.20;;;19.90;99.90;;;;;;5025507;28;20231;-55
2023/08/23 08:41:23;;;;;;;3.17;2.10;;;20.00;99.90;;;;;;5014227;28;20704;-56
2023/08/23 08:43:52;;;;;;;2.60;2.20;;;20.20;99.90;;;;;;5019476;28;20289;-57
2023/08/23 08:46:23;;;;;;;4.33;2.00;;;20.20;99.90;;;;;;5000794;28;20219;-53
2023/08/23 08:48:59;;;;;;;4.03;2.00;;;20.10;99.90;;;;;;5013947;28;20192;-53
2023/08/23 08:51:40;;;;;;;3.73;1.77;;;20.10;99.90;;;;;;5003675;28;20211;-56
2023/08/23 08:54:11;;;;;;;4.37;2.37;;;20.00;99.90;;;;;;5028883;28;20709;-54
2023/08/23 08:56:56;;;;;;;2.70;2.43;;;20.00;99.90;;;;;;5018465;28;20212;-56
2023/08/23 08:59:50;;;;;;;2.60;1.93;;;20.00;99.90;;;;;;5013622;28;20188;-55
2023/08/23 09:02:20;;;;;;;3.87;2.33;;;20.00;99.90;;;;;;5001343;28;20286;-55
2023/08/23 09:04:47;;;;;;;2.13;1.80;;;20.10;99.90;;;;;;5017311;28;20211;-55
2023/08/23 09:07:18;;;;;;;3.67;1.80;;;20.10;99.90;;;;;;4998537;28;20196;-55
2023/08/23 09:09:46;;;;;;;4.60;1.70;;;20.20;99.90;;;;;;5025552;28;20235;-55
2023/08/23 09:12:16;;;;;;;4.53;2.27;;;20.20;99.90;;;;;;5019238;28;20212;-57
2023/08/23 09:15:06;;;;;;;2.60;1.73;;;20.20;99.90;;;;;;5025487;28;20749;-53
2023/08/23 09:17:45;;;;;;;2.83;1.60;;;20.20;99.90;;;;;;5010574;28;20678;-54
2023/08/23 09:20:17;;;;;;;2.43;1.60;;;20.30;99.90;;;;;;5007702;28;20196;-56
2023/08/23 09:22:45;;;;;;;2.83;1.57;;;20.30;99.90;;;;;;5017940;28;20567;-55
2023/08/23 09:25:12;;;;;;;2.93;1.77;;;20.40;99.90;;;;;;5012638;28;20791;-53
2023/08/23 09:27:47;;;;;;;1.40;1.30;;;20.50;99.90;;;;;;5030441;28;20549;-56
2023/08/23 09:30:20;;;;;;;1.63;1.53;;;20.50;99.90;;;;;;5002691;28;20203;-54
2023/08/23 09:32:48;;;;;;;1.93;1.50;;;20.50;99.90;;;;;;5000208;28;20327;-57
2023/08/23 09:35:17;;;;;;;2.43;1.60;;;20.50;99.90;;;;;;5014521;28;20967;-57
2023/08/23 09:37:46;;;;;;;2.27;1.40;;;20.60;99.90;;;;;;5015856;28;20200;-52
2023/08/23 09:40:21;;;;;;;1.73;1.63;;;20.60;99.90;;;;;;5011309;28;20230;-55
2023/08/23 09:42:49;;;;;;;3.25;1.73;;;20.70;99.90;;;;;;5024503;28;20227;-56
2023/08/23 09:45:20;;;;;;;2.20;1.20;;;20.80;99.90;;;;;;5004006;28;20196;-57
2023/08/23 09:47:52;;;;;;;2.70;1.50;;;20.90;99.90;;;;;;5010107;28;20235;-57
2023/08/23 09:50:20;;;;;;;2.43;1.30;;;20.90;99.90;;;;;;5013933;28;21399;-58
2023/08/23 09:52:52;;;;;;;1.83;0.90;;;20.90;99.90;;;;;;5012228;28;21378;-55
2023/08/23 09:55:21;;;;;;;1.73;1.25;;;21.00;99.90;;;;;;5012741;28;20202;-58
2023/08/23 09:57:49;;;;;;;1.48;1.15;;;21.00;99.90;;;;;;5026678;28;20288;-57
2023/08/23 10:00:19;;;;;;;1.83;1.10;;;21.00;99.90;;;;;;4996769;28;22795;-57
2023/08/23 10:02:47;;;;;;;2.30;1.40;;;21.00;99.90;;;;;;5024850;28;20281;-57
2023/08/23 10:05:17;;;;;;;1.77;1.50;;;21.10;99.90;;;;;;4994424;28;20250;-56
2023/08/23 10:07:46;;;;;;;3.30;1.60;;;21.10;99.90;;;;;;5014509;28;20250;-52
2023/08/23 10:10:14;;;;;;;2.40;1.25;;;21.20;99.90;;;;;;5016990;28;20200;-54
2023/08/23 10:12:45;;;;;;;2.92;1.80;;;21.30;99.90;;;;;;5029436;28;20207;-55
2023/08/23 10:15:15;;;;;;;2.42;1.20;;;21.40;99.90;;;;;;5002967;28;20311;-50
2023/08/23 10:17:47;;;;;;;1.40;1.30;;;21.40;99.90;;;;;;5014138;28;20268;-58
2023/08/23 10:20:14;;;;;;;1.35;1.02;;;21.50;99.90;;;;;;5010830;28;20287;-50
2023/08/23 10:22:41;;;;;;;1.10;1.00;;;21.60;99.90;;;;;;5019012;28;20224;-52
2023/08/23 10:25:18;;;;;;;2.63;1.13;;;21.60;99.90;;;;;;5021751;28;20187;-52
2023/08/23 10:27:47;;;;;;;2.35;1.00;;;21.60;99.90;;;;;;5018233;28;20322;-52
2023/08/23 10:30:21;;;;;;;1.33;0.93;;;21.60;99.90;;;;;;5013906;28;20311;-55
2023/08/23 10:32:50;;;;;;;1.08;0.93;;;21.60;99.90;;;;;;5018160;28;20264;-53
2023/08/23 10:35:23;;;;;;;3.83;1.00;;;21.60;99.90;;;;;;5003563;28;20919;-51
2023/08/23 10:37:53;;;;;;;1.42;0.82;;;21.70;99.90;;;;;;5009024;28;20203;-53
2023/08/23 10:40:22;;;;;;;1.65;0.85;;;21.80;99.90;;;;;;5023283;28;20214;-55
2023/08/23 10:42:50;;;;;;;1.98;1.00;;;21.80;99.90;;;;;;5018622;28;20812;-50
2023/08/23 10:45:18;;;;;;;1.65;1.00;;;21.90;99.90;;;;;;5015839;28;21841;-51
2023/08/23 10:47:47;;;;;;;2.42;0.90;;;21.90;99.90;;;;;;5015811;28;20287;-50
2023/08/23 10:50:16;;;;;;;1.00;0.80;;;21.90;99.90;;;;;;5003027;28;20208;-50
2023/08/23 10:52:43;;;;;;;2.63;0.90;;;22.00;99.90;;;;;;5015563;28;20318;-49
2023/08/23 10:55:11;;;;;;;1.13;0.75;;;22.00;99.90;;;;;;5013409;28;20770;-55
2023/08/23 10:57:38;;;;;;;2.38;0.85;;;22.00;99.90;;;;;;5024112;28;20235;-52
2023/08/23 11:00:07;;;;;;;1.92;1.05;;;22.00;99.90;;;;;;5013037;28;20938;-47
2023/08/23 11:02:35;;;;;;;1.50;0.90;;;22.10;99.90;;;;;;5007224;28;20223;-55
2023/08/23 11:05:03;;;;;;;4.07;1.05;;;22.10;99.90;;;;;;5002172;28;21287;-54
2023/08/23 11:07:32;;;;;;;1.42;0.70;;;22.10;99.90;;;;;;5016676;28;20203;-54
2023/08/23 11:10:01;;;;;;;1.98;0.70;;;22.20;99.90;;;;;;5012034;28;20210;-51
2023/08/23 11:12:28;;;;;;;1.23;0.77;;;22.30;99.90;;;;;;5025498;28;20203;-55
2023/08/23 11:14:57;;;;;;;2.25;0.82;;;22.40;99.90;;;;;;5013631;28;20694;-48
2023/08/23 11:17:25;;;;;;;1.42;1.13;;;22.50;99.90;;;;;;5019184;28;20289;-54
2023/08/23 11:19:52;;;;;;;0.85;0.85;;;22.50;99.90;;;;;;5024506;28;20557;-53
2023/08/23 11:22:20;;;;;;;2.10;0.98;;;22.50;99.90;;;;;;4995959;28;20671;-50
2023/08/23 11:24:52;;;;;;;2.15;0.80;;;22.60;99.90;;;;;;5012384;28;20279;-48
2023/08/23 11:27:33;;;;;;;1.38;1.10;;;22.60;99.90;;;;;;5020521;28;20210;-54
2023/08/23 11:30:15;;;;;;;1.60;0.82;;;22.60;99.90;;;;;;5016104;28;20195;-50
2023/08/23 11:32:47;;;;;;;3.63;1.00;;;22.70;99.90;;;;;;5025991;28;20220;-50
2023/08/23 11:35:33;;;;;;;1.25;0.90;;;22.80;99.90;;;;;;5020861;28;20203;-51
2023/08/23 11:38:16;;;;;;;1.15;1.05;;;22.90;99.90;;;;;;4991237;28;20244;-54
2023/08/23 11:40:56;;;;;;;1.98;0.90;;;22.80;99.90;;;;;;5012959;28;20219;-55
2023/08/23 11:43:46;;;;;;;2.22;0.90;;;22.90;99.90;;;;;;5023208;28;20220;-55
2023/08/23 11:46:37;;;;;;;1.40;0.82;;;23.00;99.90;;;;;;5023259;28;20256;-56
2023/08/23 11:49:09;;;;;;;1.55;0.88;;;23.00;99.90;;;;;;5019202;28;20327;-55
2023/08/23 11:51:43;;;;;;;2.30;0.90;;;23.00;99.90;;;;;;5025686;28;20672;-58
2023/08/23 11:54:11;;;;;;;1.52;0.80;;;23.00;99.90;;;;;;5007090;28;20350;-57
2023/08/23 11:56:55;;;;;;;1.10;0.93;;;23.20;99.90;;;;;;5015879;28;20285;-56
2023/08/23 11:59:34;;;;;;;1.10;1.10;;;23.40;99.90;;;;;;5027440;28;20257;-55
2023/08/23 12:02:04;;;;;;;1.92;1.00;;;23.30;99.90;;;;;;5015176;28;20200;-57
2023/08/23 12:05:15;;;;;;;1.35;0.80;;;23.40;99.90;;;;;;5013358;28;20224;-49
2023/08/23 12:07:42;;;;;;;2.47;1.42;;;23.50;99.90;;;;;;5022099;28;20199;-52
2023/08/23 12:10:16;;;;;;;1.30;0.93;;;23.50;99.90;;;;;;5004808;28;20196;-54
2023/08/23 12:13:03;;;;;;;1.15;1.00;;;23.40;99.90;;;;;;5013899;28;20240;-46
2023/08/23 12:15:39;;;;;;;1.73;1.00;;;23.40;99.90;;;;;;5024746;28;20199;-45
2023/08/23 12:18:17;;;;;;;1.50;1.05;;;23.50;99.90;;;;;;5012763;28;20262;-52
2023/08/23 12:21:15;;;;;;;1.00;1.00;;;23.70;99.90;;;;;;5013874;28;20188;-47
2023/08/23 12:23:56;;;;;;;1.08;0.85;;;23.80;99.90;;;;;;4998986;28;20614;-49
2023/08/23 12:26:44;;;;;;;1.30;1.15;;;23.80;99.90;;;;;;5016786;28;20205;-46
2023/08/23 12:29:20;;;;;;;1.88;1.15;;;23.90;99.90;;;;;;5019086;28;20207;-45
2023/08/23 12:31:50;;;;;;;2.72;1.08;;;24.10;99.90;;;;;;5021087;28;20199;-55
2023/08/23 12:34:31;;;;;;;0.82;0.82;;;24.10;99.90;;;;;;5021671;28;20216;-47
2023/08/23 12:37:16;;;;;;;2.15;0.90;;;24.00;99.90;;;;;;5014508;28;20188;-46
2023/08/23 12:39:47;;;;;;;1.55;1.17;;;24.00;99.90;;;;;;5003541;28;20719;-55
2023/08/23 12:42:17;;;;;;;0.80;0.80;;;24.10;99.90;;;;;;5011471;28;20220;-50
2023/08/23 12:44:45;;;;;;;1.50;0.80;;;24.10;99.90;;;;;;5013045;28;20224;-55
2023/08/23 12:47:12;;;;;;;1.13;1.02;;;24.10;99.90;;;;;;5024570;28;20272;-49
2023/08/23 12:49:39;;;;;;;1.00;1.00;;;24.00;99.90;;;;;;5017991;28;20236;-49
2023/08/23 12:52:06;;;;;;;1.33;1.08;;;24.00;99.90;;;;;;5015834;28;20207;-47
2023/08/23 12:54:33;;;;;;;1.83;1.10;;;24.10;99.90;;;;;;5027406;28;20326;-47